sensor_id;sensor_type;location;lat;lon;timestamp;pressure;altitude;pressure_sealevel;temperature;humidity
68508;BME280;55510;49.560;19.090;2023-06-14T00:02:22;96287.81;;;4.83;100.00
68508;BME280;55510;49.560;19.090;2023-06-14T00:05:22;96292.69;;;4.79;100.00
68508;BME280;55510;49.560;19.090;2023-06-14T00:08:24;96285.00;;;4.78;100.00
68508;BME280;55510;49.560;19.090;2023-06-14T00:11:25;96279.97;;;4.70;100.00
68508;BME280;55510;49.560;19.090;2023-06-14T00:14:27;96282.19;;;4.66;100.00
68508;BME280;55510;49.560;19.090;2023-06-14T00:17:28;96275.91;;;4.60;100.00
68508;BME280;55510;49.560;19.090;2023-06-14T00:20:33;96282.84;;;4.55;100.00
68508;BME280;55510;49.560;19.090;2023-06-14T00:23:33;96276.75;;;4.54;100.00
68508;BME280;55510;49.560;19.090;2023-06-14T00:26:34;96276.38;;;4.50;100.00
68508;BME280;55510;49.560;19.090;2023-06-14T00:29:35;96276.78;;;4.47;100.00
68508;BME280;55510;49.560;19.090;2023-06-14T00:32:35;96276.81;;;4.41;100.00
68508;BME280;55510;49.560;19.090;2023-06-14T00:35:36;96271.94;;;4.38;100.00
68508;BME280;55510;49.560;19.090;2023-06-14T00:38:37;96269.50;;;4.36;100.00
68508;BME280;55510;49.560;19.090;2023-06-14T00:41:39;96278.03;;;4.31;100.00
68508;BME280;55510;49.560;19.090;2023-06-14T00:44:40;96278.84;;;4.32;100.00
68508;BME280;55510;49.560;19.090;2023-06-14T00:47:41;96280.09;;;4.29;100.00
68508;BME280;55510;49.560;19.090;2023-06-14T00:50:44;96283.31;;;4.25;100.00
68508;BME280;55510;49.560;19.090;2023-06-14T00:53:49;96260.63;;;4.24;100.00
68508;BME280;55510;49.560;19.090;2023-06-14T00:56:50;96272.19;;;4.23;100.00
68508;BME280;55510;49.560;19.090;2023-06-14T00:59:51;96272.00;;;4.17;100.00
68508;BME280;55510;49.560;19.090;2023-06-14T01:02:51;96271.78;;;4.12;100.00
68508;BME280;55510;49.560;19.090;2023-06-14T01:05:59;96266.34;;;4.07;100.00
68508;BME280;55510;49.560;19.090;2023-06-14T01:15:30;96267.75;;;3.89;100.00
68508;BME280;55510;49.560;19.090;2023-06-14T01:18:31;96267.16;;;3.87;100.00
68508;BME280;55510;49.560;19.090;2023-06-14T01:21:34;96263.72;;;3.87;100.00
68508;BME280;55510;49.560;19.090;2023-06-14T01:24:41;96250.97;;;3.84;100.00
68508;BME280;55510;49.560;19.090;2023-06-14T01:27:45;96261.91;;;3.81;100.00
68508;BME280;55510;49.560;19.090;2023-06-14T01:30:51;96257.44;;;3.74;100.00
68508;BME280;55510;49.560;19.090;2023-06-14T01:33:54;96261.88;;;3.67;100.00
68508;BME280;55510;49.560;19.090;2023-06-14T01:36:55;96256.66;;;3.60;100.00
68508;BME280;55510;49.560;19.090;2023-06-14T01:39:57;96264.53;;;3.60;100.00
68508;BME280;55510;49.560;19.090;2023-06-14T01:42:58;96265.97;;;3.56;100.00
68508;BME280;55510;49.560;19.090;2023-06-14T01:46:00;96260.09;;;3.54;100.00
68508;BME280;55510;49.560;19.090;2023-06-14T01:49:01;96264.34;;;3.55;100.00
68508;BME280;55510;49.560;19.090;2023-06-14T01:52:03;96261.06;;;3.53;100.00
68508;BME280;55510;49.560;19.090;2023-06-14T01:55:06;96268.97;;;3.53;100.00
68508;BME280;55510;49.560;19.090;2023-06-14T01:58:09;96271.00;;;3.51;100.00
68508;BME280;55510;49.560;19.090;2023-06-14T02:01:09;96266.13;;;3.48;100.00
68508;BME280;55510;49.560;19.090;2023-06-14T02:04:12;96273.41;;;3.46;100.00
68508;BME280;55510;49.560;19.090;2023-06-14T02:07:12;96263.28;;;3.43;100.00
68508;BME280;55510;49.560;19.090;2023-06-14T02:10:13;96266.75;;;3.43;100.00
68508;BME280;55510;49.560;19.090;2023-06-14T02:13:15;96270.59;;;3.41;100.00
68508;BME280;55510;49.560;19.090;2023-06-14T02:16:16;96269.97;;;3.39;100.00
68508;BME280;55510;49.560;19.090;2023-06-14T02:19:18;96263.31;;;3.36;100.00
68508;BME280;55510;49.560;19.090;2023-06-14T02:22:19;96272.41;;;3.33;100.00
68508;BME280;55510;49.560;19.090;2023-06-14T02:25:21;96266.31;;;3.26;100.00
68508;BME280;55510;49.560;19.090;2023-06-14T02:28:21;96271.97;;;3.23;100.00
68508;BME280;55510;49.560;19.090;2023-06-14T02:31:22;96280.28;;;3.20;100.00
68508;BME280;55510;49.560;19.090;2023-06-14T02:34:23;96278.03;;;3.17;100.00
68508;BME280;55510;49.560;19.090;2023-06-14T02:37:23;96279.06;;;3.16;100.00
68508;BME280;55510;49.560;19.090;2023-06-14T02:40:24;96282.06;;;3.19;100.00
68508;BME280;55510;49.560;19.090;2023-06-14T02:43:25;96283.31;;;3.17;100.00
68508;BME280;55510;49.560;19.090;2023-06-14T02:46:25;96277.22;;;3.16;100.00
68508;BME280;55510;49.560;19.090;2023-06-14T02:49:26;96274.81;;;3.15;100.00
68508;BME280;55510;49.560;19.090;2023-06-14T02:52:27;96274.19;;;3.13;100.00
68508;BME280;55510;49.560;19.090;2023-06-14T02:55:27;96267.91;;;3.14;100.00
68508;BME280;55510;49.560;19.090;2023-06-14T02:58:28;96271.34;;;3.14;100.00
68508;BME280;55510;49.560;19.090;2023-06-14T03:01:29;96270.34;;;3.15;100.00
68508;BME280;55510;49.560;19.090;2023-06-14T03:04:35;96266.91;;;3.15;100.00
68508;BME280;55510;49.560;19.090;2023-06-14T03:07:38;96266.31;;;3.13;100.00
68508;BME280;55510;49.560;19.090;2023-06-14T03:10:46;96257.81;;;3.11;100.00
68508;BME280;55510;49.560;19.090;2023-06-14T03:13:47;96259.78;;;3.09;100.00
68508;BME280;55510;49.560;19.090;2023-06-14T03:16:48;96253.13;;;3.06;100.00
68508;BME280;55510;49.560;19.090;2023-06-14T03:19:50;96270.72;;;3.05;100.00
68508;BME280;55510;49.560;19.090;2023-06-14T03:22:51;96261.81;;;3.07;100.00
68508;BME280;55510;49.560;19.090;2023-06-14T03:25:52;96262.66;;;3.14;100.00
68508;BME280;55510;49.560;19.090;2023-06-14T03:28:53;96264.50;;;3.20;100.00
68508;BME280;55510;49.560;19.090;2023-06-14T03:34:59;96263.91;;;3.31;100.00
68508;BME280;55510;49.560;19.090;2023-06-14T03:37:59;96254.41;;;3.37;100.00
68508;BME280;55510;49.560;19.090;2023-06-14T03:41:00;96262.28;;;3.44;100.00
68508;BME280;55510;49.560;19.090;2023-06-14T03:44:01;96272.41;;;3.54;100.00
68508;BME280;55510;49.560;19.090;2023-06-14T03:47:02;96271.22;;;3.63;100.00
68508;BME280;55510;49.560;19.090;2023-06-14T03:50:03;96276.47;;;3.70;100.00
68508;BME280;55510;49.560;19.090;2023-06-14T03:53:04;96271.22;;;3.76;100.00
68508;BME280;55510;49.560;19.090;2023-06-14T03:56:05;96275.25;;;3.79;100.00
68508;BME280;55510;49.560;19.090;2023-06-14T03:59:06;96270.19;;;3.84;100.00
68508;BME280;55510;49.560;19.090;2023-06-14T04:02:07;96269.59;;;3.89;100.00
68508;BME280;55510;49.560;19.090;2023-06-14T04:05:10;96272.22;;;3.96;100.00
68508;BME280;55510;49.560;19.090;2023-06-14T04:08:10;96277.47;;;4.09;100.00
68508;BME280;55510;49.560;19.090;2023-06-14T04:11:11;96278.47;;;4.21;100.00
68508;BME280;55510;49.560;19.090;2023-06-14T04:14:12;96280.03;;;4.36;100.00
68508;BME280;55510;49.560;19.090;2023-06-14T04:17:13;96288.97;;;4.48;100.00
68508;BME280;55510;49.560;19.090;2023-06-14T04:20:14;96284.06;;;4.59;100.00
68508;BME280;55510;49.560;19.090;2023-06-14T04:23:17;96282.59;;;4.70;100.00
68508;BME280;55510;49.560;19.090;2023-06-14T04:26:22;96285.97;;;4.84;100.00
68508;BME280;55510;49.560;19.090;2023-06-14T04:29:24;96290.38;;;4.97;100.00
68508;BME280;55510;49.560;19.090;2023-06-14T04:32:27;96283.81;;;5.13;100.00
68508;BME280;55510;49.560;19.090;2023-06-14T04:35:30;96280.50;;;5.24;100.00
68508;BME280;55510;49.560;19.090;2023-06-14T04:38:32;96279.03;;;5.35;100.00
68508;BME280;55510;49.560;19.090;2023-06-14T04:41:35;96278.56;;;5.45;100.00
68508;BME280;55510;49.560;19.090;2023-06-14T04:44:35;96279.50;;;5.57;100.00
68508;BME280;55510;49.560;19.090;2023-06-14T04:47:37;96278.81;;;5.69;100.00
68508;BME280;55510;49.560;19.090;2023-06-14T04:50:37;96277.91;;;5.81;100.00
68508;BME280;55510;49.560;19.090;2023-06-14T04:53:40;96266.41;;;5.94;100.00
68508;BME280;55510;49.560;19.090;2023-06-14T04:56:41;96273.44;;;6.07;100.00
68508;BME280;55510;49.560;19.090;2023-06-14T04:59:48;96276.94;;;6.27;100.00
68508;BME280;55510;49.560;19.090;2023-06-14T05:02:55;96271.44;;;6.47;100.00
68508;BME280;55510;49.560;19.090;2023-06-14T05:05:55;96275.34;;;6.63;100.00
68508;BME280;55510;49.560;19.090;2023-06-14T05:08:56;96277.97;;;6.81;100.00
68508;BME280;55510;49.560;19.090;2023-06-14T05:11:57;96280.81;;;6.99;100.00
68508;BME280;55510;49.560;19.090;2023-06-14T05:14:58;96287.47;;;7.20;100.00
68508;BME280;55510;49.560;19.090;2023-06-14T05:17:59;96281.97;;;7.33;100.00
68508;BME280;55510;49.560;19.090;2023-06-14T05:21:00;96291.94;;;7.50;100.00
68508;BME280;55510;49.560;19.090;2023-06-14T05:24:04;96285.19;;;7.66;100.00
68508;BME280;55510;49.560;19.090;2023-06-14T05:27:05;96294.88;;;7.84;100.00
68508;BME280;55510;49.560;19.090;2023-06-14T05:30:07;96293.78;;;8.04;100.00
68508;BME280;55510;49.560;19.090;2023-06-14T05:33:08;96299.06;;;8.27;100.00
68508;BME280;55510;49.560;19.090;2023-06-14T05:36:09;96302.09;;;8.43;98.96
68508;BME280;55510;49.560;19.090;2023-06-14T05:39:10;96296.56;;;8.56;97.84
68508;BME280;55510;49.560;19.090;2023-06-14T05:42:10;96296.31;;;8.70;97.42
68508;BME280;55510;49.560;19.090;2023-06-14T05:45:11;96296.25;;;8.94;98.17
68508;BME280;55510;49.560;19.090;2023-06-14T05:48:12;96306.94;;;9.11;96.73
68508;BME280;55510;49.560;19.090;2023-06-14T05:51:13;96298.44;;;9.26;96.27
68508;BME280;55510;49.560;19.090;2023-06-14T05:54:15;96302.53;;;9.46;96.72
68508;BME280;55510;49.560;19.090;2023-06-14T05:57:15;96301.28;;;9.65;96.24
68508;BME280;55510;49.560;19.090;2023-06-14T06:00:17;96303.41;;;9.80;94.81
68508;BME280;55510;49.560;19.090;2023-06-14T06:03:18;96304.94;;;9.93;94.49
68508;BME280;55510;49.560;19.090;2023-06-14T06:06:19;96311.06;;;10.11;94.73
68508;BME280;55510;49.560;19.090;2023-06-14T06:09:20;96304.38;;;10.25;94.03
68508;BME280;55510;49.560;19.090;2023-06-14T06:12:21;96307.63;;;10.44;92.91
68508;BME280;55510;49.560;19.090;2023-06-14T06:15:52;96306.59;;;10.68;93.07
68508;BME280;55510;49.560;19.090;2023-06-14T06:18:53;96306.84;;;10.88;93.22
68508;BME280;55510;49.560;19.090;2023-06-14T06:21:54;96308.06;;;11.03;92.52
68508;BME280;55510;49.560;19.090;2023-06-14T06:24:55;96306.66;;;11.17;91.15
68508;BME280;55510;49.560;19.090;2023-06-14T06:27:55;96313.47;;;11.30;90.76
68508;BME280;55510;49.560;19.090;2023-06-14T06:30:57;96313.38;;;11.48;91.45
68508;BME280;55510;49.560;19.090;2023-06-14T06:33:57;96312.22;;;11.66;90.60
68508;BME280;55510;49.560;19.090;2023-06-14T06:36:59;96317.75;;;11.86;91.28
68508;BME280;55510;49.560;19.090;2023-06-14T06:39:59;96321.38;;;12.02;90.41
68508;BME280;55510;49.560;19.090;2023-06-14T06:43:02;96331.59;;;12.11;87.08
68508;BME280;55510;49.560;19.090;2023-06-14T06:46:03;96330.34;;;12.24;87.74
68508;BME280;55510;49.560;19.090;2023-06-14T06:49:04;96328.59;;;12.40;88.74
68508;BME280;55510;49.560;19.090;2023-06-14T06:52:05;96335.09;;;12.54;87.97
68508;BME280;55510;49.560;19.090;2023-06-14T06:55:07;96334.09;;;12.66;87.00
68508;BME280;55510;49.560;19.090;2023-06-14T06:58:09;96333.59;;;12.74;85.51
68508;BME280;55510;49.560;19.090;2023-06-14T07:01:10;96335.28;;;12.85;85.98
68508;BME280;55510;49.560;19.090;2023-06-14T07:04:12;96341.72;;;12.95;85.29
68508;BME280;55510;49.560;19.090;2023-06-14T07:07:13;96337.53;;;13.14;86.31
68508;BME280;55510;49.560;19.090;2023-06-14T07:10:13;96342.38;;;13.23;84.28
68508;BME280;55510;49.560;19.090;2023-06-14T07:13:14;96341.88;;;13.26;84.15
68508;BME280;55510;49.560;19.090;2023-06-14T07:16:15;96350.44;;;13.33;83.79
68508;BME280;55510;49.560;19.090;2023-06-14T07:19:16;96347.84;;;13.43;84.11
68508;BME280;55510;49.560;19.090;2023-06-14T07:22:17;96347.34;;;13.62;85.21
68508;BME280;55510;49.560;19.090;2023-06-14T07:25:18;96351.91;;;13.72;83.55
68508;BME280;55510;49.560;19.090;2023-06-14T07:28:20;96346.88;;;13.81;81.77
68508;BME280;55510;49.560;19.090;2023-06-14T07:31:21;96339.38;;;13.88;82.37
68508;BME280;55510;49.560;19.090;2023-06-14T07:34:22;96345.25;;;13.95;81.12
68508;BME280;55510;49.560;19.090;2023-06-14T07:37:22;96345.56;;;13.99;81.25
68508;BME280;55510;49.560;19.090;2023-06-14T07:40:23;96346.63;;;14.13;82.06
68508;BME280;55510;49.560;19.090;2023-06-14T07:43:24;96342.09;;;14.24;81.11
68508;BME280;55510;49.560;19.090;2023-06-14T07:46:24;96346.34;;;14.35;80.62
68508;BME280;55510;49.560;19.090;2023-06-14T07:49:26;96347.16;;;14.52;80.41
68508;BME280;55510;49.560;19.090;2023-06-14T07:52:26;96351.13;;;14.70;80.31
68508;BME280;55510;49.560;19.090;2023-06-14T07:55:27;96347.91;;;14.83;79.19
68508;BME280;55510;49.560;19.090;2023-06-14T07:58:28;96354.84;;;15.00;79.07
68508;BME280;55510;49.560;19.090;2023-06-14T08:01:29;96348.41;;;15.01;76.31
68508;BME280;55510;49.560;19.090;2023-06-14T08:04:31;96348.94;;;15.08;77.76
68508;BME280;55510;49.560;19.090;2023-06-14T08:07:32;96350.47;;;15.25;75.90
68508;BME280;55510;49.560;19.090;2023-06-14T08:10:33;96359.22;;;15.46;77.27
68508;BME280;55510;49.560;19.090;2023-06-14T08:13:33;96354.81;;;15.71;77.28
68508;BME280;55510;49.560;19.090;2023-06-14T08:16:34;96353.38;;;15.94;75.52
68508;BME280;55510;49.560;19.090;2023-06-14T08:19:35;96363.69;;;16.11;76.42
68508;BME280;55510;49.560;19.090;2023-06-14T08:22:37;96360.69;;;16.18;73.63
68508;BME280;55510;49.560;19.090;2023-06-14T08:25:38;96357.97;;;16.23;74.18
68508;BME280;55510;49.560;19.090;2023-06-14T08:28:39;96360.06;;;16.31;74.55
68508;BME280;55510;49.560;19.090;2023-06-14T08:31:40;96359.00;;;16.27;73.97
68508;BME280;55510;49.560;19.090;2023-06-14T08:34:40;96366.03;;;16.23;73.44
68508;BME280;55510;49.560;19.090;2023-06-14T08:37:41;96360.56;;;16.38;75.17
68508;BME280;55510;49.560;19.090;2023-06-14T08:40:42;96366.09;;;16.47;74.88
68508;BME280;55510;49.560;19.090;2023-06-14T08:43:43;96367.28;;;16.65;73.41
68508;BME280;55510;49.560;19.090;2023-06-14T08:46:44;96361.81;;;16.76;71.62
68508;BME280;55510;49.560;19.090;2023-06-14T08:49:46;96373.50;;;16.90;72.35
68508;BME280;55510;49.560;19.090;2023-06-14T08:52:54;96363.25;;;16.98;71.70
68508;BME280;55510;49.560;19.090;2023-06-14T08:55:55;96369.91;;;17.05;69.52
68508;BME280;55510;49.560;19.090;2023-06-14T08:58:57;96367.41;;;17.09;67.72
68508;BME280;55510;49.560;19.090;2023-06-14T09:02:01;96364.56;;;17.24;68.44
68508;BME280;55510;49.560;19.090;2023-06-14T09:05:03;96368.88;;;17.45;67.51
68508;BME280;55510;49.560;19.090;2023-06-14T09:08:04;96371.00;;;17.67;65.23
68508;BME280;55510;49.560;19.090;2023-06-14T09:11:05;96377.38;;;17.76;65.04
68508;BME280;55510;49.560;19.090;2023-06-14T09:14:06;96370.09;;;17.96;65.13
68508;BME280;55510;49.560;19.090;2023-06-14T09:17:06;96366.47;;;18.06;62.90
68508;BME280;55510;49.560;19.090;2023-06-14T09:20:08;96372.44;;;18.22;63.33
68508;BME280;55510;49.560;19.090;2023-06-14T09:23:21;96367.53;;;18.43;64.75
68508;BME280;55510;49.560;19.090;2023-06-14T09:26:22;96367.97;;;18.64;61.78
68508;BME280;55510;49.560;19.090;2023-06-14T09:29:23;96361.09;;;18.72;60.97
68508;BME280;55510;49.560;19.090;2023-06-14T09:32:24;96361.81;;;18.78;58.32
68508;BME280;55510;49.560;19.090;2023-06-14T09:35:25;96356.81;;;18.85;58.53
68508;BME280;55510;49.560;19.090;2023-06-14T09:38:26;96355.88;;;19.09;56.63
68508;BME280;55510;49.560;19.090;2023-06-14T09:41:37;96363.56;;;19.30;56.71
68508;BME280;55510;49.560;19.090;2023-06-14T09:44:38;96353.06;;;19.42;56.23
68508;BME280;55510;49.560;19.090;2023-06-14T09:47:39;96351.53;;;19.64;54.97
68508;BME280;55510;49.560;19.090;2023-06-14T09:50:40;96345.59;;;19.90;56.96
68508;BME280;55510;49.560;19.090;2023-06-14T09:53:41;96357.16;;;20.04;55.10
68508;BME280;55510;49.560;19.090;2023-06-14T09:56:47;96354.72;;;20.17;54.53
68508;BME280;55510;49.560;19.090;2023-06-14T09:59:52;96355.94;;;20.10;52.33
68508;BME280;55510;49.560;19.090;2023-06-14T10:02:58;96351.16;;;20.07;52.64
68508;BME280;55510;49.560;19.090;2023-06-14T10:06:03;96361.09;;;20.21;53.06
68508;BME280;55510;49.560;19.090;2023-06-14T10:09:08;96355.19;;;20.19;52.14
68508;BME280;55510;49.560;19.090;2023-06-14T10:12:09;96349.19;;;20.22;53.77
68508;BME280;55510;49.560;19.090;2023-06-14T10:15:17;96353.59;;;20.18;54.28
68508;BME280;55510;49.560;19.090;2023-06-14T10:25:07;96342.34;;;20.02;50.46
68508;BME280;55510;49.560;19.090;2023-06-14T10:28:20;96336.59;;;19.94;51.16
68508;BME280;55510;49.560;19.090;2023-06-14T10:31:39;96333.78;;;19.85;52.26
68508;BME280;55510;49.560;19.090;2023-06-14T10:34:41;96328.69;;;19.98;50.17
68508;BME280;55510;49.560;19.090;2023-06-14T10:37:42;96326.59;;;20.18;52.16
68508;BME280;55510;49.560;19.090;2023-06-14T10:40:52;96322.28;;;20.39;51.94
68508;BME280;55510;49.560;19.090;2023-06-14T10:47:29;96325.09;;;20.57;53.14
68508;BME280;55510;49.560;19.090;2023-06-14T10:50:30;96326.06;;;20.61;50.65
68508;BME280;55510;49.560;19.090;2023-06-14T10:53:40;96329.09;;;20.60;51.14
68508;BME280;55510;49.560;19.090;2023-06-14T10:56:47;96335.28;;;20.60;52.48
68508;BME280;55510;49.560;19.090;2023-06-14T10:59:49;96330.97;;;20.59;52.73
68508;BME280;55510;49.560;19.090;2023-06-14T11:05:54;96332.94;;;20.99;51.01
68508;BME280;55510;49.560;19.090;2023-06-14T11:12:28;96335.28;;;21.23;48.55
68508;BME280;55510;49.560;19.090;2023-06-14T11:15:38;96335.59;;;21.30;52.60
68508;BME280;55510;49.560;19.090;2023-06-14T11:18:44;96335.97;;;20.97;50.42
68508;BME280;55510;49.560;19.090;2023-06-14T11:21:49;96338.13;;;20.86;52.00
68508;BME280;55510;49.560;19.090;2023-06-14T11:24:50;96333.56;;;20.96;53.73
68508;BME280;55510;49.560;19.090;2023-06-14T11:27:51;96338.66;;;20.97;56.53
68508;BME280;55510;49.560;19.090;2023-06-14T11:31:02;96343.72;;;20.90;55.88
68508;BME280;55510;49.560;19.090;2023-06-14T11:34:03;96341.94;;;20.85;56.52
68508;BME280;55510;49.560;19.090;2023-06-14T11:37:06;96342.63;;;20.68;52.30
68508;BME280;55510;49.560;19.090;2023-06-14T11:40:08;96337.91;;;20.51;54.29
68508;BME280;55510;49.560;19.090;2023-06-14T11:43:10;96329.91;;;20.14;53.95
68508;BME280;55510;49.560;19.090;2023-06-14T11:46:14;96334.69;;;20.18;57.38
68508;BME280;55510;49.560;19.090;2023-06-14T11:49:16;96341.69;;;20.19;56.03
68508;BME280;55510;49.560;19.090;2023-06-14T11:52:16;96327.44;;;20.27;56.35
68508;BME280;55510;49.560;19.090;2023-06-14T11:55:17;96333.72;;;20.36;56.80
68508;BME280;55510;49.560;19.090;2023-06-14T11:58:18;96327.91;;;20.52;57.49
68508;BME280;55510;49.560;19.090;2023-06-14T12:01:19;96332.72;;;20.55;57.91
68508;BME280;55510;49.560;19.090;2023-06-14T12:04:29;96334.56;;;20.46;58.68
68508;BME280;55510;49.560;19.090;2023-06-14T12:07:30;96327.88;;;20.43;60.05
68508;BME280;55510;49.560;19.090;2023-06-14T12:10:39;96330.84;;;20.64;59.60
68508;BME280;55510;49.560;19.090;2023-06-14T12:13:41;96329.13;;;20.68;59.64
68508;BME280;55510;49.560;19.090;2023-06-14T12:16:42;96332.50;;;20.42;57.50
68508;BME280;55510;49.560;19.090;2023-06-14T12:19:44;96333.59;;;20.41;59.65
68508;BME280;55510;49.560;19.090;2023-06-14T12:22:52;96330.94;;;20.05;56.46
68508;BME280;55510;49.560;19.090;2023-06-14T12:25:53;96335.59;;;19.90;59.35
68508;BME280;55510;49.560;19.090;2023-06-14T12:28:54;96329.84;;;19.69;59.25
68508;BME280;55510;49.560;19.090;2023-06-14T12:31:55;96329.25;;;19.58;60.73
68508;BME280;55510;49.560;19.090;2023-06-14T12:34:57;96330.78;;;19.50;59.83
68508;BME280;55510;49.560;19.090;2023-06-14T12:37:58;96332.69;;;19.36;59.60
68508;BME280;55510;49.560;19.090;2023-06-14T12:40:58;96327.28;;;19.36;61.00
68508;BME280;55510;49.560;19.090;2023-06-14T12:43:59;96323.97;;;19.53;61.98
68508;BME280;55510;49.560;19.090;2023-06-14T12:47:04;96326.69;;;19.90;62.58
68508;BME280;55510;49.560;19.090;2023-06-14T12:50:06;96320.09;;;20.19;60.97
68508;BME280;55510;49.560;19.090;2023-06-14T12:53:06;96311.00;;;20.37;59.65
68508;BME280;55510;49.560;19.090;2023-06-14T12:56:07;96317.72;;;20.49;59.31
68508;BME280;55510;49.560;19.090;2023-06-14T12:59:11;96323.84;;;20.63;58.43
68508;BME280;55510;49.560;19.090;2023-06-14T13:02:19;96317.94;;;20.84;54.45
68508;BME280;55510;49.560;19.090;2023-06-14T13:05:23;96314.75;;;20.82;57.04
68508;BME280;55510;49.560;19.090;2023-06-14T13:08:24;96319.88;;;20.92;55.23
68508;BME280;55510;49.560;19.090;2023-06-14T13:11:24;96318.66;;;21.07;54.77
68508;BME280;55510;49.560;19.090;2023-06-14T13:14:25;96312.00;;;21.13;53.40
68508;BME280;55510;49.560;19.090;2023-06-14T13:17:26;96303.25;;;21.17;52.14
68508;BME280;55510;49.560;19.090;2023-06-14T13:20:27;96303.06;;;21.13;52.72
68508;BME280;55510;49.560;19.090;2023-06-14T13:23:28;96304.22;;;21.21;52.03
68508;BME280;55510;49.560;19.090;2023-06-14T13:26:29;96301.97;;;21.23;52.77
68508;BME280;55510;49.560;19.090;2023-06-14T13:29:29;96311.06;;;21.27;53.45
68508;BME280;55510;49.560;19.090;2023-06-14T13:32:32;96301.56;;;21.47;50.51
68508;BME280;55510;49.560;19.090;2023-06-14T13:35:32;96301.72;;;21.42;48.52
68508;BME280;55510;49.560;19.090;2023-06-14T13:38:34;96300.91;;;21.50;50.11
68508;BME280;55510;49.560;19.090;2023-06-14T13:41:34;96299.31;;;21.49;48.80
68508;BME280;55510;49.560;19.090;2023-06-14T13:44:35;96302.34;;;21.56;48.37
68508;BME280;55510;49.560;19.090;2023-06-14T13:47:36;96302.34;;;21.56;50.84
68508;BME280;55510;49.560;19.090;2023-06-14T13:50:37;96299.00;;;21.42;50.23
68508;BME280;55510;49.560;19.090;2023-06-14T13:53:38;96307.22;;;21.19;51.67
68508;BME280;55510;49.560;19.090;2023-06-14T13:56:39;96300.28;;;20.86;50.38
68508;BME280;55510;49.560;19.090;2023-06-14T13:59:40;96293.63;;;20.61;51.27
68508;BME280;55510;49.560;19.090;2023-06-14T14:02:42;96296.47;;;20.56;53.97
68508;BME280;55510;49.560;19.090;2023-06-14T14:05:44;96299.09;;;20.47;54.25
68508;BME280;55510;49.560;19.090;2023-06-14T14:08:45;96298.41;;;20.33;53.79
68508;BME280;55510;49.560;19.090;2023-06-14T14:11:45;96301.44;;;20.08;53.64
68508;BME280;55510;49.560;19.090;2023-06-14T14:14:46;96293.75;;;19.88;52.86
68508;BME280;55510;49.560;19.090;2023-06-14T14:17:47;96297.31;;;19.74;54.88
68508;BME280;55510;49.560;19.090;2023-06-14T14:20:48;96300.84;;;19.75;57.08
68508;BME280;55510;49.560;19.090;2023-06-14T14:23:49;96301.97;;;19.96;56.86
68508;BME280;55510;49.560;19.090;2023-06-14T14:26:51;96303.50;;;20.11;55.59
68508;BME280;55510;49.560;19.090;2023-06-14T14:29:53;96304.31;;;20.12;54.67
68508;BME280;55510;49.560;19.090;2023-06-14T14:32:54;96310.78;;;19.88;55.17
68508;BME280;55510;49.560;19.090;2023-06-14T14:35:55;96315.19;;;19.47;54.04
68508;BME280;55510;49.560;19.090;2023-06-14T14:38:56;96307.22;;;19.28;56.06
68508;BME280;55510;49.560;19.090;2023-06-14T14:41:57;96303.31;;;18.92;55.68
68508;BME280;55510;49.560;19.090;2023-06-14T14:44:58;96307.00;;;18.82;57.19
68508;BME280;55510;49.560;19.090;2023-06-14T14:48:00;96306.00;;;18.64;57.24
68508;BME280;55510;49.560;19.090;2023-06-14T14:51:01;96308.06;;;18.53;57.83
68508;BME280;55510;49.560;19.090;2023-06-14T14:54:02;96302.06;;;18.43;57.37
68508;BME280;55510;49.560;19.090;2023-06-14T14:57:03;96301.22;;;18.28;57.49
68508;BME280;55510;49.560;19.090;2023-06-14T15:00:05;96298.41;;;18.19;58.01
68508;BME280;55510;49.560;19.090;2023-06-14T15:03:06;96299.03;;;18.30;58.78
68508;BME280;55510;49.560;19.090;2023-06-14T15:06:07;96292.69;;;18.40;58.35
68508;BME280;55510;49.560;19.090;2023-06-14T15:09:08;96294.28;;;18.55;58.48
68508;BME280;55510;49.560;19.090;2023-06-14T15:12:09;96291.72;;;18.92;58.86
68508;BME280;55510;49.560;19.090;2023-06-14T15:15:11;96288.75;;;19.21;56.77
68508;BME280;55510;49.560;19.090;2023-06-14T15:18:12;96288.19;;;19.84;56.35
68508;BME280;55510;49.560;19.090;2023-06-14T15:21:12;96294.88;;;20.86;53.07
68508;BME280;55510;49.560;19.090;2023-06-14T15:24:13;96297.63;;;21.71;50.52
68508;BME280;55510;49.560;19.090;2023-06-14T15:27:14;96302.50;;;22.39;49.74
68508;BME280;55510;49.560;19.090;2023-06-14T15:30:15;96303.44;;;22.43;47.70
68508;BME280;55510;49.560;19.090;2023-06-14T15:33:16;96309.75;;;22.83;47.01
68508;BME280;55510;49.560;19.090;2023-06-14T15:36:16;96305.19;;;23.35;44.95
68508;BME280;55510;49.560;19.090;2023-06-14T15:39:17;96309.06;;;23.76;44.20
68508;BME280;55510;49.560;19.090;2023-06-14T15:42:17;96311.28;;;24.38;42.91
68508;BME280;55510;49.560;19.090;2023-06-14T15:45:18;96305.31;;;24.11;41.88
68508;BME280;55510;49.560;19.090;2023-06-14T15:48:19;96304.16;;;23.27;43.89
68508;BME280;55510;49.560;19.090;2023-06-14T15:51:21;96311.28;;;22.45;46.18
68508;BME280;55510;49.560;19.090;2023-06-14T15:54:21;96297.41;;;21.58;48.32
68508;BME280;55510;49.560;19.090;2023-06-14T15:57:22;96298.06;;;20.89;49.06
68508;BME280;55510;49.560;19.090;2023-06-14T16:00:23;96304.22;;;20.26;50.13
68508;BME280;55510;49.560;19.090;2023-06-14T16:03:25;96308.44;;;19.73;52.60
68508;BME280;55510;49.560;19.090;2023-06-14T16:06:27;96298.44;;;19.22;53.79
68508;BME280;55510;49.560;19.090;2023-06-14T16:09:28;96298.50;;;18.89;54.05
68508;BME280;55510;49.560;19.090;2023-06-14T16:12:29;96302.00;;;18.62;54.70
68508;BME280;55510;49.560;19.090;2023-06-14T16:15:29;96298.25;;;18.44;55.15
68508;BME280;55510;49.560;19.090;2023-06-14T16:18:30;96308.41;;;18.19;55.72